createdAt,value
2022-12-04T00:01:22.470Z,40.93
2022-12-04T00:03:53.832Z,37.97
2022-12-04T00:06:22.677Z,36.97
2022-12-04T00:08:50.751Z,38.90
2022-12-04T00:11:26.032Z,39.67
2022-12-04T00:13:52.972Z,41.30
2022-12-04T00:16:23.951Z,40.73
2022-12-04T00:18:51.322Z,40.77
2022-12-04T00:21:19.886Z,40.97
2022-12-04T00:23:47.893Z,41.63
2022-12-04T00:26:20.701Z,42.93
2022-12-04T00:28:47.991Z,39.33
2022-12-04T00:31:23.342Z,41.77
2022-12-04T00:33:50.417Z,40.30
2022-12-04T00:36:21.293Z,42.43
2022-12-04T00:38:48.530Z,39.50
2022-12-04T00:41:18.098Z,40.53
2022-12-04T00:43:45.856Z,42.47
2022-12-04T00:46:14.273Z,42.00
2022-12-04T00:48:41.867Z,43.33
2022-12-04T00:51:13.788Z,42.10
2022-12-04T00:53:40.604Z,43.17
2022-12-04T00:56:14.022Z,42.40
2022-12-04T00:58:41.429Z,42.90
2022-12-04T01:01:12.401Z,41.77
2022-12-04T01:03:40.025Z,42.57
2022-12-04T01:06:07.781Z,44.67
2022-12-04T01:08:34.592Z,43.60
2022-12-04T01:11:06.843Z,42.57
2022-12-04T01:13:33.603Z,42.53
2022-12-04T01:16:00.401Z,41.63
2022-12-04T01:18:27.317Z,44.83
2022-12-04T01:20:53.955Z,43.90
2022-12-04T01:23:20.768Z,44.83
2022-12-04T01:25:56.691Z,44.43
2022-12-04T01:28:24.328Z,45.77
2022-12-04T01:31:07.323Z,44.20
2022-12-04T01:33:36.562Z,44.37
2022-12-04T01:36:07.276Z,43.90
2022-12-04T01:38:35.124Z,44.90
2022-12-04T01:41:02.372Z,44.47
2022-12-04T01:43:32.817Z,44.63
2022-12-04T01:46:00.868Z,45.40
2022-12-04T01:48:40.072Z,45.70
2022-12-04T01:51:28.446Z,45.47
2022-12-04T01:54:05.222Z,46.97
2022-12-04T01:56:57.440Z,47.30
2022-12-04T01:59:30.692Z,45.93
2022-12-04T02:02:15.493Z,44.73
2022-12-04T02:04:43.633Z,45.00
2022-12-04T02:07:12.218Z,44.67
2022-12-04T02:09:40.701Z,44.07
2022-12-04T02:12:39.087Z,45.37
2022-12-04T02:15:30.008Z,43.60
2022-12-04T02:19:04.236Z,44.97
2022-12-04T02:21:35.736Z,42.57
2022-12-04T02:24:50.119Z,44.17
2022-12-04T02:28:25.004Z,45.33
2022-12-04T02:30:58.743Z,44.53
2022-12-04T02:33:53.996Z,46.03
2022-12-04T02:36:31.105Z,45.13
2022-12-04T02:39:15.434Z,44.90
2022-12-04T02:42:13.693Z,43.60
2022-12-04T02:44:50.281Z,44.80
2022-12-04T02:47:23.239Z,44.03
2022-12-04T02:50:01.733Z,46.47
2022-12-04T02:52:36.911Z,47.40
2022-12-04T02:55:20.379Z,43.67
2022-12-04T02:57:56.028Z,45.43
2022-12-04T03:00:22.937Z,46.67
2022-12-04T03:03:02.804Z,48.93
2022-12-04T03:05:43.221Z,45.27
2022-12-04T03:08:19.487Z,47.50
2022-12-04T03:10:55.797Z,49.43
2022-12-04T03:13:37.890Z,51.33
2022-12-04T03:16:17.635Z,49.23
2022-12-04T03:18:56.048Z,46.57
2022-12-04T03:21:31.065Z,50.87
2022-12-04T03:24:29.186Z,48.57
2022-12-04T03:27:43.059Z,50.07
2022-12-04T03:30:16.134Z,52.33
2022-12-04T03:33:09.589Z,48.83
2022-12-04T03:36:00.376Z,48.07
2022-12-04T03:38:39.151Z,49.07
2022-12-04T03:41:20.044Z,48.23
2022-12-04T03:44:02.163Z,49.40
2022-12-04T03:47:11.838Z,48.27
2022-12-04T03:50:02.384Z,46.63
2022-12-04T03:52:58.050Z,49.97
2022-12-04T03:55:34.090Z,46.90
2022-12-04T03:58:08.125Z,48.97
2022-12-04T04:00:41.307Z,48.13
2022-12-04T04:03:24.058Z,50.53
2022-12-04T04:05:58.571Z,48.30
2022-12-04T04:08:34.003Z,51.30
2022-12-04T04:11:27.728Z,46.87
2022-12-04T04:14:25.536Z,48.17
2022-12-04T04:17:24.380Z,46.87
2022-12-04T04:20:19.640Z,48.23
2022-12-04T04:23:08.005Z,48.60
2022-12-04T04:25:40.503Z,48.57
2022-12-04T04:28:38.255Z,50.03
2022-12-04T04:31:29.642Z,45.83
2022-12-04T04:34:11.321Z,47.00
2022-12-04T04:37:06.103Z,49.57
2022-12-04T04:39:51.186Z,51.43
2022-12-04T04:42:22.728Z,51.37
2022-12-04T04:45:18.591Z,49.73
2022-12-04T04:47:56.852Z,49.97
2022-12-04T04:50:24.331Z,48.40
2022-12-04T04:52:57.628Z,51.33
2022-12-04T04:55:24.591Z,48.90
2022-12-04T04:57:51.371Z,49.80
2022-12-04T05:00:22.306Z,51.90
2022-12-04T05:02:50.272Z,50.57
2022-12-04T05:05:17.869Z,50.07
2022-12-04T05:07:44.682Z,51.73
2022-12-04T05:10:11.690Z,51.80
2022-12-04T05:12:38.475Z,52.97
2022-12-04T05:15:05.850Z,49.10
2022-12-04T05:17:35.651Z,51.33
2022-12-04T05:20:04.655Z,51.73
2022-12-04T05:22:36.409Z,51.67
2022-12-04T05:25:07.706Z,53.33
2022-12-04T05:27:34.409Z,51.10
2022-12-04T05:30:01.105Z,56.23
2022-12-04T05:32:29.386Z,51.27
2022-12-04T05:34:57.598Z,53.70
2022-12-04T05:37:25.526Z,52.17
2022-12-04T05:39:52.675Z,54.17
2022-12-04T05:42:19.805Z,52.47
2022-12-04T05:44:47.564Z,52.00
2022-12-04T05:47:14.203Z,54.47
2022-12-04T05:49:40.817Z,53.63
2022-12-04T05:52:07.585Z,52.37
2022-12-04T05:54:34.239Z,52.03
2022-12-04T05:57:00.922Z,52.27
2022-12-04T05:59:27.818Z,53.20
2022-12-04T06:01:54.660Z,52.80
2022-12-04T06:04:21.624Z,53.17
2022-12-04T06:06:48.542Z,53.33
2022-12-04T06:09:15.239Z,54.33
2022-12-04T06:11:43.515Z,53.63
2022-12-04T06:14:14.677Z,53.00
2022-12-04T06:16:45.822Z,53.37
2022-12-04T06:19:19.439Z,52.30
2022-12-04T06:21:51.770Z,56.10
2022-12-04T06:24:24.585Z,54.67
2022-12-04T06:27:26.111Z,54.60
2022-12-04T06:29:42.051Z,54.23
2022-12-04T06:32:08.848Z,52.27
2022-12-04T06:34:36.961Z,53.03
2022-12-04T06:37:03.810Z,52.73
2022-12-04T06:39:30.510Z,51.83
2022-12-04T06:41:58.226Z,49.47
2022-12-04T06:44:24.972Z,51.43
2022-12-04T06:46:54.716Z,51.27
2022-12-04T06:49:22.902Z,51.93
2022-12-04T06:51:49.673Z,52.53
2022-12-04T06:54:16.438Z,51.17
2022-12-04T06:56:43.162Z,56.53
2022-12-04T06:59:10.300Z,52.63
2022-12-04T07:01:37.252Z,52.27
2022-12-04T07:04:04.643Z,53.90
2022-12-04T07:06:37.638Z,50.77
2022-12-04T07:09:14.686Z,52.40
2022-12-04T07:11:43.303Z,57.30
2022-12-04T07:14:11.321Z,53.67
2022-12-04T07:16:41.496Z,53.50
2022-12-04T07:19:13.781Z,55.57
2022-12-04T07:21:41.764Z,55.37
2022-12-04T07:24:12.837Z,52.73
2022-12-04T07:26:39.581Z,50.63
2022-12-04T07:29:06.365Z,54.37
2022-12-04T07:31:33.068Z,53.77
2022-12-04T07:33:59.841Z,53.70
2022-12-04T07:36:27.231Z,51.70
2022-12-04T07:38:56.117Z,53.23
2022-12-04T07:41:23.605Z,53.27
2022-12-04T07:43:50.316Z,51.10
2022-12-04T07:46:22.444Z,53.97
2022-12-04T07:48:49.318Z,52.77
2022-12-04T07:51:19.950Z,53.03
2022-12-04T07:53:47.602Z,52.57
2022-12-04T07:56:15.306Z,53.63
2022-12-04T07:58:43.086Z,53.43
2022-12-04T08:01:16.565Z,52.30
2022-12-04T08:03:48.508Z,52.03
2022-12-04T08:06:21.658Z,50.73
2022-12-04T08:08:49.935Z,49.60
2022-12-04T08:11:20.297Z,49.97
2022-12-04T08:13:47.028Z,50.37
2022-12-04T08:16:15.145Z,50.83
2022-12-04T08:18:46.522Z,48.27
2022-12-04T08:21:17.453Z,48.97
2022-12-04T08:23:44.772Z,53.80
2022-12-04T08:26:12.135Z,51.57
2022-12-04T08:28:39.943Z,47.77
2022-12-04T08:31:10.648Z,52.93
2022-12-04T08:33:37.657Z,47.27
2022-12-04T08:36:10.300Z,50.50
2022-12-04T08:38:37.198Z,49.17
2022-12-04T08:41:06.670Z,50.17
2022-12-04T08:43:34.414Z,47.77
2022-12-04T08:46:06.069Z,47.73
2022-12-04T08:48:33.783Z,49.07
2022-12-04T08:51:01.071Z,49.53
2022-12-04T08:53:27.797Z,50.30
2022-12-04T08:55:54.457Z,47.27
2022-12-04T08:58:21.885Z,49.83
2022-12-04T09:00:48.691Z,45.00
2022-12-04T09:03:18.562Z,47.63
2022-12-04T09:05:46.083Z,48.77
2022-12-04T09:08:16.869Z,50.73
2022-12-04T09:10:44.317Z,48.37
2022-12-04T09:13:11.054Z,48.77
2022-12-04T09:15:41.567Z,48.30
2022-12-04T09:18:09.204Z,47.03
2022-12-04T09:20:36.783Z,46.53
2022-12-04T09:23:05.743Z,49.93
2022-12-04T09:25:36.590Z,44.77
2022-12-04T09:28:04.303Z,47.70
2022-12-04T09:30:31.036Z,47.17
2022-12-04T09:32:57.810Z,48.10
2022-12-04T09:35:24.518Z,47.70
2022-12-04T09:37:51.270Z,46.10
2022-12-04T09:40:37.861Z,46.93
2022-12-04T09:43:26.054Z,49.30
2022-12-04T09:45:59.102Z,44.30
2022-12-04T09:48:35.603Z,48.93
2022-12-04T09:51:04.939Z,49.03
2022-12-04T09:54:02.074Z,46.73
2022-12-04T09:56:32.138Z,48.13
2022-12-04T09:59:27.396Z,47.07
2022-12-04T10:02:09.404Z,49.37
2022-12-04T10:04:36.204Z,44.83
2022-12-04T10:07:25.378Z,48.33
2022-12-04T10:10:08.380Z,46.37
2022-12-04T10:13:29.298Z,46.90
2022-12-04T10:16:23.014Z,47.97
2022-12-04T10:18:52.498Z,47.80
2022-12-04T10:21:48.585Z,48.37
2022-12-04T10:24:34.739Z,47.30
2022-12-04T10:27:10.720Z,46.97
2022-12-04T10:29:41.393Z,47.20
2022-12-04T10:32:20.208Z,46.37
2022-12-04T10:34:50.568Z,45.00
2022-12-04T10:37:17.447Z,46.43
2022-12-04T10:40:03.160Z,45.97
2022-12-04T10:42:38.532Z,47.50
2022-12-04T10:45:07.157Z,46.47
2022-12-04T10:47:34.715Z,47.60
2022-12-04T10:50:12.912Z,45.03
2022-12-04T10:52:39.628Z,47.90
2022-12-04T10:55:06.846Z,46.57
2022-12-04T10:57:46.416Z,46.07
2022-12-04T11:00:34.117Z,45.57
2022-12-04T11:03:08.760Z,48.57
2022-12-04T11:05:43.544Z,48.27
2022-12-04T11:08:33.346Z,47.30
2022-12-04T11:11:11.332Z,45.83
2022-12-04T11:13:39.313Z,45.73
2022-12-04T11:16:06.648Z,47.17
2022-12-04T11:18:47.896Z,46.70
2022-12-04T11:21:27.629Z,44.40
2022-12-04T11:23:54.705Z,45.43
2022-12-04T11:26:41.639Z,46.37
2022-12-04T11:29:16.673Z,45.73
2022-12-04T11:31:52.916Z,43.07
2022-12-04T11:34:24.809Z,45.47
2022-12-04T11:36:57.055Z,49.53
2022-12-04T11:39:38.905Z,46.57
2022-12-04T11:42:31.680Z,46.30
2022-12-04T11:44:58.856Z,47.13
2022-12-04T11:47:32.511Z,45.17
2022-12-04T11:50:32.543Z,44.13
2022-12-04T11:53:07.705Z,47.93
2022-12-04T11:56:07.799Z,46.87
2022-12-04T11:59:06.202Z,46.60
2022-12-04T12:02:38.582Z,47.10
2022-12-04T12:05:48.921Z,45.27
2022-12-04T12:08:43.154Z,46.40
2022-12-04T12:11:30.835Z,48.83
2022-12-04T12:14:18.797Z,46.97
2022-12-04T12:17:03.593Z,46.20
2022-12-04T12:20:11.043Z,51.30
2022-12-04T12:23:07.619Z,44.93
2022-12-04T12:25:58.046Z,46.83
2022-12-04T12:28:53.319Z,48.30
2022-12-04T12:31:59.362Z,46.60
2022-12-04T12:34:45.119Z,46.07
2022-12-04T12:37:43.986Z,47.67
2022-12-04T12:40:15.240Z,46.73
2022-12-04T12:43:13.920Z,46.70
2022-12-04T12:46:02.037Z,45.40
2022-12-04T12:48:35.257Z,43.73
2022-12-04T12:51:29.490Z,43.87
2022-12-04T12:54:19.198Z,51.40
2022-12-04T12:56:53.078Z,46.53
2022-12-04T12:59:26.982Z,46.67
2022-12-04T13:02:38.984Z,46.07
2022-12-04T13:05:10.964Z,45.57
2022-12-04T13:07:53.148Z,46.63
2022-12-04T13:10:28.629Z,47.47
2022-12-04T13:13:12.126Z,45.67
2022-12-04T13:15:55.553Z,46.30
2022-12-04T13:18:40.744Z,47.57
2022-12-04T13:21:10.482Z,46.27
2022-12-04T13:23:49.227Z,48.13
2022-12-04T13:26:49.923Z,46.07
2022-12-04T13:29:46.773Z,44.87
2022-12-04T13:32:48.869Z,52.40
2022-12-04T13:35:50.571Z,46.37
2022-12-04T13:38:53.786Z,46.30
2022-12-04T13:41:27.563Z,44.83
2022-12-04T13:43:55.479Z,42.70
2022-12-04T13:46:39.257Z,45.37
2022-12-04T13:49:18.115Z,43.33
2022-12-04T13:51:47.263Z,44.13
2022-12-04T13:54:13.813Z,42.00
2022-12-04T13:56:47.523Z,42.43
2022-12-04T13:59:35.926Z,46.67
2022-12-04T14:02:24.470Z,43.90
2022-12-04T14:05:00.110Z,43.43
2022-12-04T14:07:40.651Z,45.20
2022-12-04T14:10:33.225Z,44.40
2022-12-04T14:13:23.679Z,42.90
2022-12-04T14:16:17.687Z,44.93
2022-12-04T14:19:00.525Z,44.67
2022-12-04T14:21:46.823Z,44.67
2022-12-04T14:24:38.595Z,47.87
2022-12-04T14:27:42.037Z,43.13
2022-12-04T14:30:26.119Z,43.00
2022-12-04T14:32:58.591Z,43.53
2022-12-04T14:35:28.522Z,42.13
2022-12-04T14:38:03.708Z,42.97
2022-12-04T14:40:49.224Z,42.23
2022-12-04T14:43:27.405Z,40.53
2022-12-04T14:46:15.432Z,39.03
2022-12-04T14:49:08.194Z,42.77
2022-12-04T14:51:44.245Z,44.77
2022-12-04T14:55:00.366Z,42.17
2022-12-04T14:57:46.374Z,42.03
2022-12-04T15:00:23.070Z,42.47
2022-12-04T15:02:58.230Z,41.53
2022-12-04T15:05:30.133Z,42.87
2022-12-04T15:08:06.198Z,43.87
2022-12-04T15:10:54.037Z,41.73
2022-12-04T15:13:33.353Z,40.73
2022-12-04T15:16:23.048Z,41.50
2022-12-04T15:18:56.098Z,40.73
2022-12-04T15:21:33.161Z,41.40
2022-12-04T15:24:00.095Z,41.83
2022-12-04T15:26:28.172Z,42.10
2022-12-04T15:28:59.462Z,44.53
2022-12-04T15:31:40.741Z,39.10
2022-12-04T15:34:14.566Z,43.00
2022-12-04T15:37:08.410Z,43.37
2022-12-04T15:39:37.991Z,39.80
2022-12-04T15:42:29.454Z,45.60
2022-12-04T15:45:21.752Z,40.90
2022-12-04T15:47:48.297Z,43.77
2022-12-04T15:50:18.136Z,41.37
2022-12-04T15:53:06.043Z,41.83
2022-12-04T15:55:47.147Z,41.37
2022-12-04T15:58:22.644Z,42.40
2022-12-04T16:00:58.083Z,40.80
2022-12-04T16:03:32.097Z,42.87
2022-12-04T16:06:16.004Z,42.07
2022-12-04T16:08:45.628Z,41.97
2022-12-04T16:11:18.484Z,42.37
2022-12-04T16:13:45.260Z,41.63
2022-12-04T16:16:16.130Z,42.37
2022-12-04T16:18:43.890Z,41.93
2022-12-04T16:21:18.051Z,42.70
2022-12-04T16:23:45.459Z,40.17
2022-12-04T16:26:18.814Z,38.47
2022-12-04T16:28:46.097Z,44.10
2022-12-04T16:31:13.829Z,41.83
2022-12-04T16:33:41.043Z,42.50
2022-12-04T16:36:11.276Z,43.67
2022-12-04T16:38:38.044Z,43.17
2022-12-04T16:41:05.447Z,42.57
2022-12-04T16:43:32.234Z,43.37
2022-12-04T16:46:01.353Z,42.73
2022-12-04T16:48:29.666Z,42.87
2022-12-04T16:50:56.306Z,45.53
2022-12-04T16:53:23.255Z,43.27
2022-12-04T16:55:52.406Z,43.07
2022-12-04T16:58:20.366Z,44.90
2022-12-04T17:00:55.016Z,43.27
2022-12-04T17:03:29.992Z,46.20
2022-12-04T17:05:57.981Z,43.33
2022-12-04T17:08:24.813Z,44.60
2022-12-04T17:10:52.216Z,43.03
2022-12-04T17:13:20.733Z,43.40
2022-12-04T17:15:48.365Z,42.90
2022-12-04T17:18:20.838Z,43.80
2022-12-04T17:20:48.324Z,45.07
2022-12-04T17:23:15.373Z,45.53
2022-12-04T17:25:42.328Z,44.63
2022-12-04T17:28:09.283Z,43.33
2022-12-04T17:30:36.662Z,43.13
2022-12-04T17:33:04.803Z,43.67
2022-12-04T17:35:31.924Z,49.97
2022-12-04T17:38:05.337Z,43.27
2022-12-04T17:40:32.923Z,42.40
2022-12-04T17:42:59.926Z,43.70
2022-12-04T17:45:26.739Z,44.13
2022-12-04T17:47:53.432Z,43.23
2022-12-04T17:50:20.126Z,45.83
2022-12-04T17:52:46.850Z,46.23
2022-12-04T17:55:14.835Z,45.90
2022-12-04T17:57:41.584Z,44.97
2022-12-04T18:00:09.474Z,45.40
2022-12-04T18:02:41.562Z,44.97
2022-12-04T18:05:10.175Z,44.77
2022-12-04T18:07:37.016Z,46.57
2022-12-04T18:10:04.688Z,46.60
2022-12-04T18:12:31.336Z,45.07
2022-12-04T18:14:58.164Z,46.10
2022-12-04T18:17:25.096Z,45.57
2022-12-04T18:19:51.850Z,49.17
2022-12-04T18:22:18.940Z,43.73
2022-12-04T18:24:45.928Z,44.37
2022-12-04T18:27:12.606Z,48.33
2022-12-04T18:29:39.404Z,43.73
2022-12-04T18:32:06.276Z,47.23
2022-12-04T18:34:33.208Z,45.57
2022-12-04T18:36:59.948Z,45.83
2022-12-04T18:39:28.110Z,46.23
2022-12-04T18:41:57.459Z,47.57
2022-12-04T18:44:24.865Z,46.80
2022-12-04T18:46:51.887Z,45.17
2022-12-04T18:49:18.777Z,44.77
2022-12-04T18:51:49.721Z,45.97
2022-12-04T18:54:23.700Z,46.87
2022-12-04T18:56:51.090Z,47.33
2022-12-04T18:59:22.242Z,44.00
2022-12-04T19:01:51.097Z,46.17
2022-12-04T19:04:19.549Z,48.37
2022-12-04T19:06:52.946Z,47.67
2022-12-04T19:09:40.964Z,44.40
2022-12-04T19:12:11.830Z,46.90
2022-12-04T19:14:39.642Z,46.90
2022-12-04T19:17:06.499Z,45.87
2022-12-04T19:19:33.438Z,48.17
2022-12-04T19:22:01.158Z,48.40
2022-12-04T19:24:27.979Z,50.50
2022-12-04T19:26:54.829Z,52.13
2022-12-04T19:29:21.548Z,46.97
2022-12-04T19:31:48.387Z,43.97
2022-12-04T19:34:15.235Z,46.63
2022-12-04T19:36:42.635Z,49.17
2022-12-04T19:39:09.993Z,46.73
2022-12-04T19:41:41.276Z,44.33
2022-12-04T19:44:40.109Z,43.20
2022-12-04T19:46:56.841Z,51.63
2022-12-04T19:49:23.504Z,50.80
2022-12-04T19:51:50.520Z,47.13
2022-12-04T19:54:18.094Z,46.93
2022-12-04T19:56:49.093Z,50.43
2022-12-04T19:59:15.848Z,49.43
2022-12-04T20:01:42.605Z,46.90
2022-12-04T20:04:10.766Z,45.13
2022-12-04T20:06:44.888Z,44.60
2022-12-04T20:09:15.914Z,47.17
2022-12-04T20:11:42.678Z,45.07
2022-12-04T20:14:10.353Z,48.00
2022-12-04T20:16:38.772Z,45.27
2022-12-04T20:19:07.900Z,46.60
2022-12-04T20:21:34.992Z,45.00
2022-12-04T20:24:05.055Z,47.20
2022-12-04T20:26:37.216Z,46.27
2022-12-04T20:29:06.444Z,47.33
2022-12-04T20:31:38.007Z,46.50
2022-12-04T20:34:08.371Z,45.37
2022-12-04T20:36:41.242Z,46.13
2022-12-04T20:39:09.365Z,47.57
2022-12-04T20:41:37.499Z,43.87
2022-12-04T20:44:09.048Z,49.07
2022-12-04T20:46:38.717Z,48.67
2022-12-04T20:49:20.777Z,45.73
2022-12-04T20:51:48.966Z,46.67
2022-12-04T20:54:18.605Z,49.57
2022-12-04T20:56:46.240Z,50.93
2022-12-04T20:59:15.385Z,50.00
2022-12-04T21:01:43.015Z,52.07
2022-12-04T21:04:10.788Z,50.67
2022-12-04T21:06:40.465Z,52.23
2022-12-04T21:09:12.161Z,50.47
2022-12-04T21:11:46.555Z,53.70
2022-12-04T21:14:48.051Z,50.60
2022-12-04T21:17:19.214Z,53.07
2022-12-04T21:19:50.335Z,52.40
2022-12-04T21:22:19.249Z,52.63
2022-12-04T21:24:46.000Z,52.60
2022-12-04T21:27:17.452Z,54.13
2022-12-04T21:29:47.911Z,53.43
2022-12-04T21:32:15.119Z,53.33
2022-12-04T21:34:41.884Z,55.30
2022-12-04T21:37:08.607Z,53.03
2022-12-04T21:39:36.008Z,54.93
2022-12-04T21:42:21.901Z,51.20
2022-12-04T21:44:48.874Z,52.23
2022-12-04T21:47:15.709Z,56.37
2022-12-04T21:49:42.439Z,53.30
2022-12-04T21:52:09.128Z,56.67
2022-12-04T21:54:35.807Z,53.70
2022-12-04T21:57:02.497Z,52.73
2022-12-04T21:59:29.532Z,56.27
2022-12-04T22:01:56.548Z,53.67
2022-12-04T22:04:23.451Z,52.57
2022-12-04T22:06:50.378Z,50.67
2022-12-04T22:09:17.490Z,53.03
2022-12-04T22:11:44.656Z,53.03
2022-12-04T22:14:12.486Z,52.30
2022-12-04T22:16:42.741Z,54.93
2022-12-04T22:19:12.293Z,51.67
2022-12-04T22:21:40.003Z,58.30
2022-12-04T22:24:07.535Z,55.80
2022-12-04T22:26:34.738Z,54.50
2022-12-04T22:29:03.141Z,54.27
2022-12-04T22:31:31.930Z,54.30
2022-12-04T22:34:01.424Z,54.20
2022-12-04T22:36:31.371Z,52.67
2022-12-04T22:39:09.306Z,52.10
2022-12-04T22:41:37.291Z,56.93
2022-12-04T22:44:04.602Z,50.90
2022-12-04T22:46:31.715Z,51.57
2022-12-04T22:48:59.400Z,51.50
2022-12-04T22:51:27.163Z,50.30
2022-12-04T22:53:56.963Z,52.90
2022-12-04T22:56:27.682Z,53.47
2022-12-04T22:58:55.367Z,55.47
2022-12-04T23:01:34.403Z,51.97
2022-12-04T23:04:03.138Z,50.57
2022-12-04T23:06:32.727Z,54.27
2022-12-04T23:09:04.289Z,51.53
2022-12-04T23:11:31.262Z,52.10
2022-12-04T23:14:01.692Z,49.50
2022-12-04T23:16:31.578Z,52.07
2022-12-04T23:18:58.585Z,51.30
2022-12-04T23:21:26.238Z,48.57
2022-12-04T23:23:54.237Z,48.60
2022-12-04T23:26:35.678Z,52.53
2022-12-04T23:29:04.153Z,48.27
2022-12-04T23:31:34.403Z,50.50
2022-12-04T23:34:01.968Z,51.17
2022-12-04T23:36:28.969Z,51.47
2022-12-04T23:38:55.919Z,49.00
2022-12-04T23:41:29.977Z,46.83
2022-12-04T23:43:57.679Z,48.77
2022-12-04T23:46:32.399Z,50.57
2022-12-04T23:49:00.495Z,48.60
2022-12-04T23:51:28.326Z,48.00
2022-12-04T23:53:55.388Z,45.87
2022-12-04T23:56:25.860Z,48.60
2022-12-04T23:58:55.457Z,51.03
